Casar, North Carolina
Current Conditions -  °F | °C
As of 4:35 AM on Sunday 23 Nov 2014 (Local Time) from KEHO Reporting Station
Overcast Overcast  
Wind Chill: 41°   Ceiling: 3500
Heat Index: 43°   Visibility: 10mi
Dew Point: 30°   Wind: 5mph
Humidity: 59%   Direction: 40°NE
Pressure: 30.24"   Gusts: NA
Location:  35.51°N, 81.62°W
Report Text: KEHO 230935Z AUTO 04004KT 10SM SCT020 BKN035 OVC044 06/M01 A3024 RMK AO2 T00631012
Loading
Personal Weather Stations






























Interactive Weather Map New forecast layout! Learn more

10-Day Weather Forecast

Advertisements
Track Severe Weather on mobile